createdAt,value
2022-12-08T00:02:15.157Z,6.40
2022-12-08T00:04:57.721Z,6.73
2022-12-08T00:07:44.253Z,6.87
2022-12-08T00:10:46.735Z,7.47
2022-12-08T00:13:01.254Z,8.20
2022-12-08T00:15:29.865Z,5.70
2022-12-08T00:17:58.254Z,10.17
2022-12-08T00:20:26.832Z,6.97
2022-12-08T00:22:55.272Z,8.23
2022-12-08T00:25:23.801Z,7.97
2022-12-08T00:27:52.229Z,7.93
2022-12-08T00:30:20.879Z,10.47
2022-12-08T00:32:49.370Z,7.67
2022-12-08T00:35:17.834Z,9.33
2022-12-08T00:37:46.236Z,8.80
2022-12-08T00:40:14.733Z,9.63
2022-12-08T00:42:43.092Z,10.43
2022-12-08T00:45:11.871Z,9.27
2022-12-08T00:47:40.356Z,10.30
2022-12-08T00:50:09.459Z,6.67
2022-12-08T00:52:38.042Z,10.10
2022-12-08T00:55:06.929Z,8.73
2022-12-08T00:57:35.401Z,9.47
2022-12-08T01:00:05.198Z,9.70
2022-12-08T01:02:34.447Z,7.50
2022-12-08T01:05:02.871Z,8.47
2022-12-08T01:07:31.290Z,7.60
2022-12-08T01:09:59.820Z,8.93
2022-12-08T01:12:29.982Z,8.63
2022-12-08T01:15:02.313Z,6.27
2022-12-08T01:17:31.304Z,6.00
2022-12-08T01:19:59.826Z,8.70
2022-12-08T01:22:28.415Z,7.53
2022-12-08T01:24:56.897Z,7.73
2022-12-08T01:27:25.459Z,8.40
2022-12-08T01:29:53.862Z,7.33
2022-12-08T01:32:22.335Z,7.97
2022-12-08T01:34:50.773Z,6.87
2022-12-08T01:37:19.386Z,7.77
2022-12-08T01:39:47.839Z,9.60
2022-12-08T01:42:26.525Z,7.67
2022-12-08T01:45:02.809Z,9.33
2022-12-08T01:47:41.308Z,10.23
2022-12-08T01:50:13.281Z,7.47
2022-12-08T01:53:05.291Z,7.27
2022-12-08T01:55:41.252Z,7.97
2022-12-08T01:58:29.119Z,7.27
2022-12-08T02:00:57.595Z,5.87
2022-12-08T02:03:32.983Z,9.30
2022-12-08T02:06:01.493Z,6.87
2022-12-08T02:08:30.063Z,7.20
2022-12-08T02:10:58.609Z,5.27
2022-12-08T02:13:27.384Z,9.73
2022-12-08T02:16:24.883Z,7.87
2022-12-08T02:19:29.235Z,8.67
2022-12-08T02:22:08.958Z,7.23
2022-12-08T02:25:00.040Z,7.93
2022-12-08T02:27:49.781Z,5.57
2022-12-08T02:30:37.735Z,6.90
2022-12-08T02:33:49.477Z,8.03
2022-12-08T02:36:29.571Z,6.60
2022-12-08T02:39:00.875Z,6.23
2022-12-08T02:42:22.114Z,7.43
2022-12-08T02:44:54.233Z,5.83
2022-12-08T02:47:25.100Z,8.57
2022-12-08T02:49:53.577Z,5.77
2022-12-08T02:52:21.990Z,6.93
2022-12-08T02:54:59.752Z,7.27
2022-12-08T02:57:48.765Z,7.83
2022-12-08T03:00:26.450Z,5.93
2022-12-08T03:03:10.846Z,6.10
2022-12-08T03:05:50.836Z,6.70
2022-12-08T03:08:31.931Z,8.30
2022-12-08T03:11:13.083Z,6.00
2022-12-08T03:13:47.983Z,5.50
2022-12-08T03:16:21.449Z,7.37
2022-12-08T03:18:57.921Z,5.47
2022-12-08T03:21:27.211Z,5.83
2022-12-08T03:23:57.708Z,6.23
2022-12-08T03:26:53.555Z,5.93
2022-12-08T03:29:22.140Z,6.43
2022-12-08T03:31:57.986Z,6.10
2022-12-08T03:34:29.805Z,7.50
2022-12-08T03:36:58.592Z,10.00
2022-12-08T03:39:27.135Z,7.87
2022-12-08T03:41:55.680Z,6.10
2022-12-08T03:44:24.100Z,8.40
2022-12-08T03:46:52.567Z,5.20
2022-12-08T03:49:20.999Z,8.87
2022-12-08T03:51:50.244Z,6.10
2022-12-08T03:54:18.756Z,6.13
2022-12-08T03:56:47.159Z,7.13
2022-12-08T03:59:15.670Z,7.30
2022-12-08T04:01:44.077Z,8.03
2022-12-08T04:04:12.598Z,7.23
2022-12-08T04:06:41.183Z,5.20
2022-12-08T04:09:09.594Z,5.53
2022-12-08T04:11:38.152Z,6.37
2022-12-08T04:14:06.706Z,6.83
2022-12-08T04:16:35.199Z,7.57
2022-12-08T04:19:03.919Z,7.10
2022-12-08T04:21:32.327Z,7.07
2022-12-08T04:24:01.607Z,6.20
2022-12-08T04:26:30.479Z,5.63
2022-12-08T04:28:59.090Z,8.43
2022-12-08T04:31:27.666Z,7.53
2022-12-08T04:33:56.216Z,6.57
2022-12-08T04:36:24.591Z,8.57
2022-12-08T04:38:53.147Z,7.27
2022-12-08T04:41:21.535Z,5.77
2022-12-08T04:43:50.296Z,7.20
2022-12-08T04:46:18.792Z,5.97
2022-12-08T04:48:47.354Z,8.53
2022-12-08T04:51:20.562Z,7.20
2022-12-08T04:53:49.280Z,6.00
2022-12-08T04:58:52.288Z,8.20
2022-12-08T05:01:21.089Z,6.83
2022-12-08T05:03:49.566Z,9.50
2022-12-08T05:06:18.304Z,6.80
2022-12-08T05:08:46.845Z,7.90
2022-12-08T05:11:15.540Z,7.53
2022-12-08T05:13:44.055Z,8.27
2022-12-08T05:16:15.236Z,9.67
2022-12-08T05:18:44.616Z,8.27
2022-12-08T05:21:13.139Z,8.30
2022-12-08T05:23:41.639Z,6.97
2022-12-08T05:26:10.325Z,6.83
2022-12-08T05:28:41.772Z,7.80
2022-12-08T05:31:12.225Z,7.37
2022-12-08T05:33:41.119Z,7.50
2022-12-08T05:36:10.835Z,7.83
2022-12-08T05:38:39.615Z,9.33
2022-12-08T05:41:08.853Z,7.57
2022-12-08T05:43:37.581Z,8.20
2022-12-08T05:46:06.359Z,8.50
2022-12-08T05:48:34.997Z,9.10
2022-12-08T05:51:03.981Z,7.63
2022-12-08T05:53:32.665Z,9.80
2022-12-08T05:56:01.117Z,7.80
2022-12-08T05:58:29.580Z,8.90
2022-12-08T06:00:58.078Z,7.53
2022-12-08T06:03:26.560Z,7.63
2022-12-08T06:05:55.194Z,7.80
2022-12-08T06:08:23.640Z,8.30
2022-12-08T06:10:52.069Z,11.03
2022-12-08T06:13:20.497Z,7.90
2022-12-08T06:15:48.932Z,8.87
2022-12-08T06:18:17.650Z,8.70
2022-12-08T06:20:46.158Z,8.17
2022-12-08T06:23:14.730Z,7.03
2022-12-08T06:25:43.214Z,8.37
2022-12-08T06:28:11.681Z,8.13
2022-12-08T06:30:40.075Z,6.63
2022-12-08T06:33:08.514Z,9.17
2022-12-08T06:35:38.758Z,9.23
2022-12-08T06:38:07.247Z,8.20
2022-12-08T06:40:35.713Z,9.67
2022-12-08T06:43:04.127Z,7.70
2022-12-08T06:45:32.685Z,7.43
2022-12-08T06:48:03.520Z,8.10
2022-12-08T06:50:33.348Z,8.10
2022-12-08T06:53:05.528Z,7.50
2022-12-08T06:55:57.697Z,7.77
2022-12-08T06:58:23.133Z,9.73
2022-12-08T07:00:51.686Z,10.53
2022-12-08T07:03:20.637Z,9.33
2022-12-08T07:05:49.451Z,9.03
2022-12-08T07:08:18.216Z,9.30
2022-12-08T07:10:46.805Z,7.70
2022-12-08T07:13:15.236Z,9.37
2022-12-08T07:15:43.655Z,9.87
2022-12-08T07:18:12.185Z,12.40
2022-12-08T07:20:40.841Z,11.00
2022-12-08T07:23:09.307Z,7.40
2022-12-08T07:25:38.151Z,8.23
2022-12-08T07:28:11.207Z,10.80
2022-12-08T07:30:40.622Z,10.50
2022-12-08T07:33:09.123Z,10.50
2022-12-08T07:35:37.605Z,10.90
2022-12-08T07:38:06.105Z,11.67
2022-12-08T07:40:34.704Z,9.40
2022-12-08T07:43:03.114Z,9.87
2022-12-08T07:45:32.025Z,8.73
2022-12-08T07:48:00.687Z,8.20
2022-12-08T07:50:29.143Z,9.17
2022-12-08T07:52:57.645Z,7.03
2022-12-08T07:55:26.259Z,8.73
2022-12-08T07:57:54.679Z,11.47
2022-12-08T08:00:23.297Z,8.93
2022-12-08T08:02:51.778Z,8.90
2022-12-08T08:05:20.791Z,7.23
2022-12-08T08:07:49.362Z,9.37
2022-12-08T08:10:17.903Z,9.17
2022-12-08T08:12:46.329Z,9.83
2022-12-08T08:15:14.803Z,8.93
2022-12-08T08:17:43.245Z,8.57
2022-12-08T08:20:12.417Z,9.00
2022-12-08T08:22:40.853Z,7.60
2022-12-08T08:25:09.660Z,7.20
2022-12-08T08:27:38.175Z,7.83
2022-12-08T08:30:08.931Z,7.57
2022-12-08T08:32:37.810Z,8.73
2022-12-08T08:35:06.819Z,7.27
2022-12-08T08:37:35.347Z,7.37
2022-12-08T08:40:04.573Z,7.10
2022-12-08T08:42:33.228Z,8.17
2022-12-08T08:45:01.668Z,7.60
2022-12-08T08:47:30.137Z,6.50
2022-12-08T08:49:58.563Z,8.73
2022-12-08T08:52:27.037Z,7.47
2022-12-08T08:54:55.642Z,7.53
2022-12-08T08:57:25.971Z,6.40
2022-12-08T08:59:55.124Z,7.73
2022-12-08T09:02:23.993Z,4.97
2022-12-08T09:04:52.715Z,4.60
2022-12-08T09:07:21.350Z,5.57
2022-12-08T09:09:50.026Z,6.63
2022-12-08T09:12:19.269Z,7.27
2022-12-08T09:14:47.283Z,5.03
2022-12-08T09:17:15.864Z,6.17
2022-12-08T09:19:44.428Z,5.23
2022-12-08T09:22:12.844Z,6.37
2022-12-08T09:24:41.272Z,6.03
2022-12-08T09:27:09.722Z,4.87
2022-12-08T09:29:38.199Z,6.77
2022-12-08T09:32:06.974Z,5.30
2022-12-08T09:34:35.475Z,6.43
2022-12-08T09:37:04.042Z,5.93
2022-12-08T09:39:32.541Z,5.83
2022-12-08T09:42:06.852Z,7.00
2022-12-08T09:45:15.956Z,5.73
2022-12-08T09:48:02.270Z,7.07
2022-12-08T09:50:56.824Z,9.43
2022-12-08T09:53:53.389Z,9.20
2022-12-08T09:56:26.125Z,13.23
2022-12-08T09:58:55.559Z,7.20
2022-12-08T10:01:32.881Z,7.67
2022-12-08T10:04:03.050Z,8.23
2022-12-08T10:06:42.695Z,7.27
2022-12-08T10:09:31.277Z,7.17
2022-12-08T10:12:10.231Z,10.20
2022-12-08T10:15:06.837Z,9.10
2022-12-08T10:17:45.812Z,8.27
2022-12-08T10:20:18.273Z,9.17
2022-12-08T10:23:11.554Z,10.63
2022-12-08T10:26:03.306Z,8.80
2022-12-08T10:28:32.471Z,8.17
2022-12-08T10:31:00.821Z,9.70
2022-12-08T10:33:30.297Z,8.67
2022-12-08T10:36:03.121Z,9.03
2022-12-08T10:38:34.732Z,6.83
2022-12-08T10:41:13.311Z,8.93
2022-12-08T10:44:00.715Z,8.63
2022-12-08T10:46:30.272Z,9.93
2022-12-08T10:49:07.429Z,8.17
2022-12-08T10:51:35.836Z,8.57
2022-12-08T10:54:06.124Z,8.53
2022-12-08T10:56:34.600Z,7.07
2022-12-08T10:59:21.195Z,9.20
2022-12-08T11:01:55.082Z,8.53
2022-12-08T11:04:41.153Z,9.30
2022-12-08T11:07:11.693Z,9.00
2022-12-08T11:09:48.931Z,8.33
2022-12-08T11:12:19.484Z,8.80
2022-12-08T11:15:03.463Z,8.23
2022-12-08T11:17:39.603Z,6.90
2022-12-08T11:20:10.681Z,9.03
2022-12-08T11:22:43.561Z,8.77
2022-12-08T11:25:19.571Z,8.67
2022-12-08T11:27:51.431Z,7.60
2022-12-08T11:30:22.141Z,7.37
2022-12-08T11:32:57.839Z,7.77
2022-12-08T11:35:32.055Z,7.40
2022-12-08T11:38:21.648Z,6.93
2022-12-08T11:41:16.922Z,8.10
2022-12-08T11:44:14.254Z,7.93
2022-12-08T11:46:50.174Z,7.20
2022-12-08T11:49:20.175Z,8.40
2022-12-08T11:52:07.321Z,6.57
2022-12-08T11:54:43.892Z,7.23
2022-12-08T11:57:20.613Z,8.37
2022-12-08T11:59:55.919Z,6.90
2022-12-08T12:02:28.987Z,6.90
2022-12-08T12:05:47.584Z,7.20
2022-12-08T12:09:08.701Z,6.47
2022-12-08T12:12:13.028Z,5.87
2022-12-08T12:14:52.142Z,5.80
2022-12-08T12:17:54.023Z,5.27
2022-12-08T12:20:52.662Z,6.67
2022-12-08T12:23:40.595Z,6.40
2022-12-08T12:26:19.032Z,7.17
2022-12-08T12:29:06.403Z,6.87
2022-12-08T12:31:42.795Z,6.40
2022-12-08T12:34:22.484Z,6.90
2022-12-08T12:37:23.846Z,8.20
2022-12-08T12:39:55.087Z,7.27
2022-12-08T12:42:41.612Z,7.33
2022-12-08T12:45:18.444Z,8.43
2022-12-08T12:47:58.933Z,7.40
2022-12-08T12:50:37.019Z,5.70
2022-12-08T12:53:12.371Z,7.73
2022-12-08T12:55:57.524Z,6.60
2022-12-08T12:58:31.714Z,6.67
2022-12-08T13:01:12.106Z,7.13
2022-12-08T13:03:42.973Z,6.57
2022-12-08T13:06:14.765Z,6.53
2022-12-08T13:08:53.916Z,6.97
2022-12-08T13:11:23.952Z,8.60
2022-12-08T13:14:04.944Z,5.47
2022-12-08T13:16:39.074Z,7.53
2022-12-08T13:19:16.058Z,5.87
2022-12-08T13:21:44.685Z,10.30
2022-12-08T13:24:13.189Z,5.57
2022-12-08T13:27:11.872Z,4.80
2022-12-08T13:29:41.008Z,5.87
2022-12-08T13:32:09.727Z,5.70
2022-12-08T13:34:51.018Z,5.53
2022-12-08T13:37:53.845Z,5.73
2022-12-08T13:40:30.183Z,7.13
2022-12-08T13:43:43.469Z,5.10
2022-12-08T13:55:42.399Z,4.83
2022-12-08T13:57:36.851Z,6.23
2022-12-08T14:00:22.324Z,5.67
2022-12-08T14:02:54.592Z,7.27
2022-12-08T14:05:47.553Z,6.47
2022-12-08T14:08:59.900Z,5.47
2022-12-08T14:11:52.009Z,7.17
2022-12-08T14:15:01.158Z,6.27
2022-12-08T14:17:23.064Z,5.97
2022-12-08T14:20:00.563Z,6.60
2022-12-08T14:22:38.310Z,6.13
2022-12-08T14:25:17.422Z,6.10
2022-12-08T14:27:47.109Z,7.03
2022-12-08T14:30:15.303Z,6.67
2022-12-08T14:32:48.544Z,8.50
2022-12-08T14:35:34.655Z,6.37
2022-12-08T14:38:06.286Z,6.00
2022-12-08T14:40:39.348Z,8.37
2022-12-08T14:43:10.429Z,8.67
2022-12-08T14:45:44.702Z,5.93
2022-12-08T14:48:34.691Z,6.70
2022-12-08T14:51:27.656Z,7.23
2022-12-08T14:54:16.338Z,6.43
2022-12-08T14:56:54.839Z,6.07
2022-12-08T14:59:29.660Z,6.57
2022-12-08T15:02:19.399Z,7.10
2022-12-08T15:04:50.770Z,6.03
2022-12-08T15:07:23.003Z,8.17
2022-12-08T15:10:11.474Z,9.03
2022-12-08T15:12:39.494Z,6.87
2022-12-08T15:15:10.560Z,5.73
2022-12-08T15:18:12.273Z,6.00
2022-12-08T15:20:43.967Z,6.17
2022-12-08T15:23:47.746Z,5.90
2022-12-08T15:26:29.095Z,6.30
2022-12-08T15:28:57.873Z,6.20
2022-12-08T15:31:26.422Z,5.90
2022-12-08T15:33:54.946Z,8.77
2022-12-08T15:36:23.587Z,6.33
2022-12-08T15:38:52.015Z,6.50
2022-12-08T15:41:20.486Z,6.43
2022-12-08T15:43:48.932Z,7.40
2022-12-08T15:46:17.022Z,6.60
2022-12-08T15:48:45.477Z,5.87
2022-12-08T15:51:13.958Z,5.50
2022-12-08T15:53:42.475Z,4.63
2022-12-08T15:56:28.085Z,6.60
2022-12-08T15:58:58.189Z,5.30
2022-12-08T16:01:27.423Z,5.50
2022-12-08T16:09:44.603Z,5.63
2022-12-08T16:13:48.196Z,4.07
2022-12-08T16:15:52.996Z,5.10
2022-12-08T16:18:28.991Z,4.73
2022-12-08T16:21:09.757Z,5.63
2022-12-08T16:23:46.336Z,5.70
2022-12-08T16:26:54.497Z,5.60
2022-12-08T16:29:08.898Z,5.77
2022-12-08T16:31:37.420Z,3.80
2022-12-08T16:34:05.930Z,3.10
2022-12-08T16:36:34.366Z,2.60
2022-12-08T16:39:02.952Z,2.97
2022-12-08T16:41:48.767Z,3.40
2022-12-08T16:44:17.267Z,2.73
2022-12-08T16:46:45.743Z,2.70
2022-12-08T16:49:15.561Z,2.37
2022-12-08T16:51:44.833Z,1.90
2022-12-08T16:54:13.221Z,2.13
2022-12-08T16:56:41.687Z,1.73
2022-12-08T16:59:11.643Z,1.53
2022-12-08T17:01:40.730Z,2.10
2022-12-08T17:06:58.328Z,1.90
2022-12-08T17:09:28.582Z,2.10
2022-12-08T17:12:03.316Z,2.77
2022-12-08T17:14:36.073Z,3.90
2022-12-08T17:17:04.778Z,1.77
2022-12-08T17:19:34.022Z,2.47
2022-12-08T17:22:03.301Z,1.77
2022-12-08T17:24:32.219Z,2.50
2022-12-08T17:27:04.037Z,2.30
2022-12-08T17:29:33.789Z,1.90
2022-12-08T17:32:03.180Z,2.33
2022-12-08T17:34:31.812Z,2.83
2022-12-08T17:37:00.217Z,2.23
2022-12-08T17:39:28.657Z,2.43
2022-12-08T17:41:57.297Z,3.27
2022-12-08T17:44:26.016Z,4.50
2022-12-08T17:46:54.427Z,3.40
2022-12-08T17:49:25.753Z,4.90
2022-12-08T17:51:57.386Z,3.53
2022-12-08T17:54:26.739Z,3.57
2022-12-08T17:56:58.007Z,3.53
2022-12-08T17:59:27.925Z,2.70
2022-12-08T18:01:57.979Z,2.93
2022-12-08T18:04:27.153Z,2.87
2022-12-08T18:06:58.355Z,3.47
2022-12-08T18:09:26.808Z,3.73
2022-12-08T18:11:55.315Z,3.00
2022-12-08T18:14:23.824Z,3.60
2022-12-08T18:16:52.294Z,2.93
2022-12-08T18:19:22.709Z,3.67
2022-12-08T18:21:51.293Z,2.97
2022-12-08T18:24:23.612Z,3.10
2022-12-08T18:26:52.967Z,3.07
2022-12-08T18:29:22.705Z,3.13
2022-12-08T18:31:51.915Z,2.73
2022-12-08T18:34:20.650Z,3.03
2022-12-08T18:36:49.619Z,3.03
2022-12-08T18:39:33.381Z,3.53
2022-12-08T18:42:22.697Z,2.83
2022-12-08T18:44:59.245Z,3.67
2022-12-08T18:47:27.748Z,3.70
2022-12-08T18:49:56.675Z,3.77
2022-12-08T18:52:31.579Z,3.43
2022-12-08T18:55:08.373Z,4.60
2022-12-08T18:57:40.129Z,3.70
2022-12-08T19:00:11.833Z,3.30
2022-12-08T19:02:40.559Z,4.80
2022-12-08T19:05:11.472Z,4.07
2022-12-08T19:07:42.605Z,4.70
2022-12-08T19:10:11.843Z,6.10
2022-12-08T19:12:40.286Z,5.80
2022-12-08T19:15:09.421Z,5.27
2022-12-08T19:17:38.042Z,4.60
2022-12-08T19:20:07.752Z,5.40
2022-12-08T19:22:36.530Z,5.97
2022-12-08T19:25:06.307Z,7.40
2022-12-08T19:27:34.855Z,7.07
2022-12-08T19:30:03.848Z,5.97
2022-12-08T19:32:32.461Z,6.93
2022-12-08T19:35:00.944Z,7.50
2022-12-08T19:37:29.529Z,7.10
2022-12-08T19:40:15.312Z,7.47
2022-12-08T19:43:01.663Z,6.07
2022-12-08T19:45:30.266Z,6.90
2022-12-08T19:47:59.123Z,6.60
2022-12-08T19:50:40.452Z,8.53
2022-12-08T19:53:17.893Z,7.03
2022-12-08T19:55:46.455Z,7.40
2022-12-08T19:58:14.980Z,6.63
2022-12-08T20:00:44.287Z,6.63
2022-12-08T20:03:20.832Z,6.23
2022-12-08T20:05:52.660Z,5.87
2022-12-08T20:08:21.327Z,6.70
2022-12-08T20:10:50.022Z,7.13
2022-12-08T20:13:35.847Z,7.53
2022-12-08T20:16:04.529Z,6.43
2022-12-08T20:18:35.319Z,5.57
2022-12-08T20:21:03.817Z,6.77
2022-12-08T20:23:32.718Z,5.60
2022-12-08T20:26:04.830Z,5.17
2022-12-08T20:28:33.337Z,6.43
2022-12-08T20:31:02.393Z,4.60
2022-12-08T20:33:31.050Z,5.13
2022-12-08T20:36:06.159Z,6.07
2022-12-08T20:38:34.567Z,7.97
2022-12-08T20:41:03.113Z,5.83
2022-12-08T20:43:31.630Z,5.80
2022-12-08T20:46:00.294Z,5.97
2022-12-08T20:48:28.892Z,6.13
2022-12-08T20:50:57.556Z,5.83
2022-12-08T20:53:25.982Z,4.70
2022-12-08T20:55:54.520Z,7.33
2022-12-08T20:58:23.220Z,5.73
2022-12-08T21:00:51.844Z,6.80
2022-12-08T21:03:20.430Z,5.37
2022-12-08T21:05:53.221Z,5.67
2022-12-08T21:08:25.391Z,6.23
2022-12-08T21:10:58.239Z,5.30
2022-12-08T21:13:27.006Z,6.87
2022-12-08T21:15:55.879Z,7.93
2022-12-08T21:18:24.814Z,7.03
2022-12-08T21:20:54.398Z,7.23
2022-12-08T21:23:23.016Z,6.27
2022-12-08T21:25:51.517Z,6.93
2022-12-08T21:28:20.082Z,7.03
2022-12-08T21:30:48.743Z,6.80
2022-12-08T21:33:17.950Z,7.40
2022-12-08T21:35:46.917Z,8.70
2022-12-08T21:38:15.465Z,9.10
2022-12-08T21:40:44.262Z,8.43
2022-12-08T21:43:13.777Z,8.00
2022-12-08T21:45:42.350Z,9.37
2022-12-08T21:48:12.089Z,8.00
2022-12-08T21:50:41.112Z,8.23
2022-12-08T21:53:10.867Z,8.67
2022-12-08T21:55:39.793Z,7.60
2022-12-08T21:58:08.439Z,8.47
2022-12-08T22:00:37.261Z,7.63
2022-12-08T22:03:08.004Z,9.27
2022-12-08T22:05:37.237Z,8.30
2022-12-08T22:08:06.087Z,8.23
2022-12-08T22:10:34.930Z,7.97
2022-12-08T22:13:03.652Z,8.77
2022-12-08T22:15:33.116Z,9.10
2022-12-08T22:18:01.713Z,7.53
2022-12-08T22:20:30.439Z,8.23
2022-12-08T22:22:59.071Z,6.83
2022-12-08T22:25:27.676Z,7.20
2022-12-08T22:27:56.272Z,6.60
2022-12-08T22:30:25.107Z,8.23
2022-12-08T22:32:53.720Z,8.23
2022-12-08T22:35:22.251Z,8.20
2022-12-08T22:37:51.207Z,9.20
2022-12-08T22:40:20.188Z,8.53
2022-12-08T22:42:48.692Z,8.63
2022-12-08T22:45:17.214Z,7.50
2022-12-08T22:47:45.683Z,7.53
2022-12-08T22:50:14.938Z,6.47
2022-12-08T22:52:43.549Z,8.73
2022-12-08T22:55:12.275Z,8.77
2022-12-08T22:57:40.776Z,10.43
2022-12-08T23:00:11.490Z,7.70
2022-12-08T23:02:40.869Z,8.33
2022-12-08T23:05:10.526Z,7.53
2022-12-08T23:07:39.615Z,8.73
2022-12-08T23:10:09.581Z,7.77
2022-12-08T23:12:38.481Z,8.53
2022-12-08T23:15:07.788Z,11.00
2022-12-08T23:17:36.543Z,9.07
2022-12-08T23:20:06.061Z,9.77
2022-12-08T23:22:35.239Z,9.97
2022-12-08T23:25:03.897Z,10.57
2022-12-08T23:27:33.063Z,9.80
2022-12-08T23:30:01.742Z,9.07
2022-12-08T23:32:30.298Z,9.67
2022-12-08T23:34:59.009Z,11.80
2022-12-08T23:37:27.464Z,8.90
2022-12-08T23:39:56.180Z,8.87
2022-12-08T23:42:24.750Z,9.13
2022-12-08T23:44:53.251Z,11.37
2022-12-08T23:47:23.096Z,8.90
2022-12-08T23:49:51.695Z,11.13
2022-12-08T23:52:20.313Z,9.90
2022-12-08T23:54:51.731Z,10.30
2022-12-08T23:57:20.429Z,11.20
2022-12-08T23:59:49.216Z,11.90
